sensor_id;sensor_type;location;lat;lon;timestamp;temperature;humidity
429;DHT22;201;48.758;9.290;2024-02-26T00:00:29;7.90;1.00
429;DHT22;201;48.758;9.290;2024-02-26T00:02:55;7.90;1.00
429;DHT22;201;48.758;9.290;2024-02-26T00:05:21;7.80;1.00
429;DHT22;201;48.758;9.290;2024-02-26T00:07:47;7.80;1.00
429;DHT22;201;48.758;9.290;2024-02-26T00:10:14;7.80;1.00
429;DHT22;201;48.758;9.290;2024-02-26T00:12:40;7.80;1.00
429;DHT22;201;48.758;9.290;2024-02-26T00:15:06;7.80;1.00
429;DHT22;201;48.758;9.290;2024-02-26T00:17:32;7.80;1.00
429;DHT22;201;48.758;9.290;2024-02-26T00:19:58;7.80;1.00
429;DHT22;201;48.758;9.290;2024-02-26T00:22:23;7.80;1.00
429;DHT22;201;48.758;9.290;2024-02-26T00:24:49;7.80;1.00
429;DHT22;201;48.758;9.290;2024-02-26T00:27:14;7.80;1.00
429;DHT22;201;48.758;9.290;2024-02-26T00:29:40;7.70;1.00
429;DHT22;201;48.758;9.290;2024-02-26T00:32:05;7.60;1.00
429;DHT22;201;48.758;9.290;2024-02-26T00:34:31;7.60;1.00
429;DHT22;201;48.758;9.290;2024-02-26T00:36:57;7.60;1.00
429;DHT22;201;48.758;9.290;2024-02-26T00:39:22;7.50;1.00
429;DHT22;201;48.758;9.290;2024-02-26T00:41:48;7.50;1.00
429;DHT22;201;48.758;9.290;2024-02-26T00:44:13;7.50;1.00
429;DHT22;201;48.758;9.290;2024-02-26T00:46:39;7.40;1.00
429;DHT22;201;48.758;9.290;2024-02-26T00:49:05;7.50;1.00
429;DHT22;201;48.758;9.290;2024-02-26T00:51:30;7.50;1.00
429;DHT22;201;48.758;9.290;2024-02-26T00:53:56;7.50;1.00
429;DHT22;201;48.758;9.290;2024-02-26T00:56:22;7.50;1.00
429;DHT22;201;48.758;9.290;2024-02-26T00:58:50;7.60;1.00
429;DHT22;201;48.758;9.290;2024-02-26T01:01:16;7.70;1.00
429;DHT22;201;48.758;9.290;2024-02-26T01:03:42;7.70;1.00
429;DHT22;201;48.758;9.290;2024-02-26T01:06:07;7.70;1.00
429;DHT22;201;48.758;9.290;2024-02-26T01:08:33;7.80;1.00
429;DHT22;201;48.758;9.290;2024-02-26T01:11:01;7.80;1.00
429;DHT22;201;48.758;9.290;2024-02-26T01:13:26;7.80;1.00
429;DHT22;201;48.758;9.290;2024-02-26T01:15:52;7.80;1.00
429;DHT22;201;48.758;9.290;2024-02-26T01:18:17;7.80;1.00
429;DHT22;201;48.758;9.290;2024-02-26T01:20:43;7.80;1.00
429;DHT22;201;48.758;9.290;2024-02-26T01:23:08;7.80;1.00
429;DHT22;201;48.758;9.290;2024-02-26T01:25:34;7.70;1.00
429;DHT22;201;48.758;9.290;2024-02-26T01:27:59;7.80;1.00
429;DHT22;201;48.758;9.290;2024-02-26T01:30:25;7.70;1.00
429;DHT22;201;48.758;9.290;2024-02-26T01:32:50;7.80;1.00
429;DHT22;201;48.758;9.290;2024-02-26T01:35:16;7.80;1.00
429;DHT22;201;48.758;9.290;2024-02-26T01:37:42;7.80;1.00
429;DHT22;201;48.758;9.290;2024-02-26T01:40:07;7.80;1.00
429;DHT22;201;48.758;9.290;2024-02-26T01:42:35;7.90;1.00
429;DHT22;201;48.758;9.290;2024-02-26T01:45:03;7.90;1.00
429;DHT22;201;48.758;9.290;2024-02-26T01:47:29;7.90;1.00
429;DHT22;201;48.758;9.290;2024-02-26T01:49:55;7.80;1.00
429;DHT22;201;48.758;9.290;2024-02-26T01:52:21;7.70;1.00
429;DHT22;201;48.758;9.290;2024-02-26T01:54:47;7.60;1.00
429;DHT22;201;48.758;9.290;2024-02-26T01:57:13;7.40;1.00
429;DHT22;201;48.758;9.290;2024-02-26T01:59:39;7.30;1.00
429;DHT22;201;48.758;9.290;2024-02-26T02:02:07;7.30;1.00
429;DHT22;201;48.758;9.290;2024-02-26T02:04:36;7.20;1.00
429;DHT22;201;48.758;9.290;2024-02-26T02:07:02;7.20;1.00
429;DHT22;201;48.758;9.290;2024-02-26T02:09:28;7.30;1.00
429;DHT22;201;48.758;9.290;2024-02-26T02:11:55;7.30;1.00
429;DHT22;201;48.758;9.290;2024-02-26T02:14:21;7.30;1.00
429;DHT22;201;48.758;9.290;2024-02-26T02:16:47;7.30;1.00
429;DHT22;201;48.758;9.290;2024-02-26T02:19:13;7.30;1.00
429;DHT22;201;48.758;9.290;2024-02-26T02:21:38;7.30;1.00
429;DHT22;201;48.758;9.290;2024-02-26T02:24:04;7.30;1.00
429;DHT22;201;48.758;9.290;2024-02-26T02:26:30;7.40;1.00
429;DHT22;201;48.758;9.290;2024-02-26T02:28:55;7.40;1.00
429;DHT22;201;48.758;9.290;2024-02-26T02:31:21;7.40;1.00
429;DHT22;201;48.758;9.290;2024-02-26T02:33:47;7.40;1.00
429;DHT22;201;48.758;9.290;2024-02-26T02:36:13;7.40;1.00
429;DHT22;201;48.758;9.290;2024-02-26T02:38:48;7.40;1.00
429;DHT22;201;48.758;9.290;2024-02-26T02:41:17;7.40;1.00
429;DHT22;201;48.758;9.290;2024-02-26T02:43:43;7.40;1.00
429;DHT22;201;48.758;9.290;2024-02-26T02:46:08;7.40;1.00
429;DHT22;201;48.758;9.290;2024-02-26T02:48:34;7.40;1.00
429;DHT22;201;48.758;9.290;2024-02-26T02:50:59;7.40;1.00
429;DHT22;201;48.758;9.290;2024-02-26T02:53:25;7.40;1.00
429;DHT22;201;48.758;9.290;2024-02-26T02:55:50;7.40;1.00
429;DHT22;201;48.758;9.290;2024-02-26T02:58:16;7.40;1.00
429;DHT22;201;48.758;9.290;2024-02-26T03:00:41;7.30;1.00
429;DHT22;201;48.758;9.290;2024-02-26T03:03:07;7.20;1.00
429;DHT22;201;48.758;9.290;2024-02-26T03:05:32;7.20;1.00
429;DHT22;201;48.758;9.290;2024-02-26T03:07:58;7.20;1.00
429;DHT22;201;48.758;9.290;2024-02-26T03:10:23;7.20;1.00
429;DHT22;201;48.758;9.290;2024-02-26T03:12:49;7.20;1.00
429;DHT22;201;48.758;9.290;2024-02-26T03:15:15;7.20;1.00
429;DHT22;201;48.758;9.290;2024-02-26T03:17:41;7.30;1.00
429;DHT22;201;48.758;9.290;2024-02-26T03:20:07;7.40;1.00
429;DHT22;201;48.758;9.290;2024-02-26T03:22:33;7.40;1.00
429;DHT22;201;48.758;9.290;2024-02-26T03:24:59;7.40;1.00
429;DHT22;201;48.758;9.290;2024-02-26T03:27:24;7.50;1.00
429;DHT22;201;48.758;9.290;2024-02-26T03:29:50;7.60;1.00
429;DHT22;201;48.758;9.290;2024-02-26T03:32:16;7.50;1.00
429;DHT22;201;48.758;9.290;2024-02-26T03:34:41;7.40;1.00
429;DHT22;201;48.758;9.290;2024-02-26T03:37:07;7.40;1.00
429;DHT22;201;48.758;9.290;2024-02-26T03:39:35;7.30;1.00
429;DHT22;201;48.758;9.290;2024-02-26T03:42:01;7.30;1.00
429;DHT22;201;48.758;9.290;2024-02-26T03:44:27;7.30;1.00
429;DHT22;201;48.758;9.290;2024-02-26T03:46:52;7.40;1.00
429;DHT22;201;48.758;9.290;2024-02-26T03:49:18;7.40;1.00
429;DHT22;201;48.758;9.290;2024-02-26T03:51:44;7.40;1.00
429;DHT22;201;48.758;9.290;2024-02-26T03:54:10;7.30;1.00
429;DHT22;201;48.758;9.290;2024-02-26T03:56:35;7.30;1.00
429;DHT22;201;48.758;9.290;2024-02-26T03:59:01;7.30;1.00
429;DHT22;201;48.758;9.290;2024-02-26T04:01:27;7.30;1.00
429;DHT22;201;48.758;9.290;2024-02-26T04:03:54;7.30;1.00
429;DHT22;201;48.758;9.290;2024-02-26T04:06:19;7.40;1.00
429;DHT22;201;48.758;9.290;2024-02-26T04:08:46;7.40;1.00
429;DHT22;201;48.758;9.290;2024-02-26T04:11:12;7.50;1.00
429;DHT22;201;48.758;9.290;2024-02-26T04:13:37;7.50;1.00
429;DHT22;201;48.758;9.290;2024-02-26T04:16:04;7.50;1.00
429;DHT22;201;48.758;9.290;2024-02-26T04:18:31;7.50;1.00
429;DHT22;201;48.758;9.290;2024-02-26T04:20:56;7.50;1.00
429;DHT22;201;48.758;9.290;2024-02-26T04:23:22;7.40;1.00
429;DHT22;201;48.758;9.290;2024-02-26T04:25:48;7.40;1.00
429;DHT22;201;48.758;9.290;2024-02-26T04:28:13;7.50;1.00
429;DHT22;201;48.758;9.290;2024-02-26T04:30:40;7.60;1.00
429;DHT22;201;48.758;9.290;2024-02-26T04:33:05;7.50;1.00
429;DHT22;201;48.758;9.290;2024-02-26T04:35:31;7.50;1.00
429;DHT22;201;48.758;9.290;2024-02-26T04:37:57;7.60;1.00
429;DHT22;201;48.758;9.290;2024-02-26T04:40:23;7.70;1.00
429;DHT22;201;48.758;9.290;2024-02-26T04:42:49;7.70;1.00
429;DHT22;201;48.758;9.290;2024-02-26T04:45:15;7.80;1.00
429;DHT22;201;48.758;9.290;2024-02-26T04:47:40;7.70;1.00
429;DHT22;201;48.758;9.290;2024-02-26T04:50:06;7.60;1.00
429;DHT22;201;48.758;9.290;2024-02-26T04:52:32;7.40;1.00
429;DHT22;201;48.758;9.290;2024-02-26T04:54:57;7.20;1.00
429;DHT22;201;48.758;9.290;2024-02-26T04:57:25;7.00;1.00
429;DHT22;201;48.758;9.290;2024-02-26T04:59:51;6.90;1.00
429;DHT22;201;48.758;9.290;2024-02-26T05:02:17;6.80;1.00
429;DHT22;201;48.758;9.290;2024-02-26T05:04:42;6.80;1.00
429;DHT22;201;48.758;9.290;2024-02-26T05:07:08;6.80;1.00
429;DHT22;201;48.758;9.290;2024-02-26T05:09:34;6.70;1.00
429;DHT22;201;48.758;9.290;2024-02-26T05:11:59;6.60;1.00
429;DHT22;201;48.758;9.290;2024-02-26T05:14:25;6.60;1.00
429;DHT22;201;48.758;9.290;2024-02-26T05:16:51;6.60;1.00
429;DHT22;201;48.758;9.290;2024-02-26T05:19:16;6.60;1.00
429;DHT22;201;48.758;9.290;2024-02-26T05:21:42;6.60;1.00
429;DHT22;201;48.758;9.290;2024-02-26T05:24:09;6.60;1.00
429;DHT22;201;48.758;9.290;2024-02-26T05:26:35;6.70;1.00
429;DHT22;201;48.758;9.290;2024-02-26T05:29:00;6.60;1.00
429;DHT22;201;48.758;9.290;2024-02-26T05:31:26;6.60;1.00
429;DHT22;201;48.758;9.290;2024-02-26T05:33:52;6.60;1.00
429;DHT22;201;48.758;9.290;2024-02-26T05:36:21;6.60;1.00
429;DHT22;201;48.758;9.290;2024-02-26T05:38:50;6.60;1.00
429;DHT22;201;48.758;9.290;2024-02-26T05:41:16;6.50;1.00
429;DHT22;201;48.758;9.290;2024-02-26T05:43:45;6.50;1.00
429;DHT22;201;48.758;9.290;2024-02-26T05:46:11;6.50;1.00
429;DHT22;201;48.758;9.290;2024-02-26T05:48:36;6.50;1.00
429;DHT22;201;48.758;9.290;2024-02-26T05:51:02;6.50;1.00
429;DHT22;201;48.758;9.290;2024-02-26T05:53:27;6.50;1.00
429;DHT22;201;48.758;9.290;2024-02-26T05:55:53;6.60;1.00
429;DHT22;201;48.758;9.290;2024-02-26T05:58:18;6.70;1.00
429;DHT22;201;48.758;9.290;2024-02-26T06:00:44;6.70;1.00
429;DHT22;201;48.758;9.290;2024-02-26T06:03:09;6.60;1.00
429;DHT22;201;48.758;9.290;2024-02-26T06:05:34;6.50;1.00
429;DHT22;201;48.758;9.290;2024-02-26T06:08:00;6.40;1.00
429;DHT22;201;48.758;9.290;2024-02-26T06:10:26;6.40;1.00
429;DHT22;201;48.758;9.290;2024-02-26T06:12:51;6.40;1.00
429;DHT22;201;48.758;9.290;2024-02-26T06:15:17;6.50;1.00
429;DHT22;201;48.758;9.290;2024-02-26T06:17:42;6.50;1.00
429;DHT22;201;48.758;9.290;2024-02-26T06:20:08;6.40;1.00
429;DHT22;201;48.758;9.290;2024-02-26T06:22:39;6.40;1.00
429;DHT22;201;48.758;9.290;2024-02-26T06:25:04;6.30;1.00
429;DHT22;201;48.758;9.290;2024-02-26T06:27:30;6.40;1.00
429;DHT22;201;48.758;9.290;2024-02-26T06:29:55;6.40;1.00
429;DHT22;201;48.758;9.290;2024-02-26T06:32:21;6.50;1.00
429;DHT22;201;48.758;9.290;2024-02-26T06:34:48;6.60;1.00
429;DHT22;201;48.758;9.290;2024-02-26T06:37:14;6.70;1.00
429;DHT22;201;48.758;9.290;2024-02-26T06:39:39;6.70;1.00
429;DHT22;201;48.758;9.290;2024-02-26T06:42:06;6.70;1.00
429;DHT22;201;48.758;9.290;2024-02-26T06:44:31;6.80;1.00
429;DHT22;201;48.758;9.290;2024-02-26T06:47:00;6.80;1.00
429;DHT22;201;48.758;9.290;2024-02-26T06:49:26;6.70;1.00
429;DHT22;201;48.758;9.290;2024-02-26T06:51:52;6.70;1.00
429;DHT22;201;48.758;9.290;2024-02-26T06:54:18;6.80;1.00
429;DHT22;201;48.758;9.290;2024-02-26T06:56:43;6.90;1.00
429;DHT22;201;48.758;9.290;2024-02-26T06:59:09;7.00;1.00
429;DHT22;201;48.758;9.290;2024-02-26T07:01:34;7.10;1.00
429;DHT22;201;48.758;9.290;2024-02-26T07:04:00;7.00;1.00
429;DHT22;201;48.758;9.290;2024-02-26T07:06:26;6.90;1.00
429;DHT22;201;48.758;9.290;2024-02-26T07:08:52;7.00;1.00
429;DHT22;201;48.758;9.290;2024-02-26T07:11:17;7.00;1.00
429;DHT22;201;48.758;9.290;2024-02-26T07:13:45;7.10;1.00
429;DHT22;201;48.758;9.290;2024-02-26T07:16:11;7.20;1.00
429;DHT22;201;48.758;9.290;2024-02-26T07:18:36;7.30;1.00
429;DHT22;201;48.758;9.290;2024-02-26T07:21:02;7.40;1.00
429;DHT22;201;48.758;9.290;2024-02-26T07:23:29;7.50;1.00
429;DHT22;201;48.758;9.290;2024-02-26T07:25:54;7.50;1.00
429;DHT22;201;48.758;9.290;2024-02-26T07:28:20;7.60;1.00
429;DHT22;201;48.758;9.290;2024-02-26T07:30:45;7.70;1.00
429;DHT22;201;48.758;9.290;2024-02-26T07:33:11;7.70;1.00
429;DHT22;201;48.758;9.290;2024-02-26T07:35:36;7.80;1.00
429;DHT22;201;48.758;9.290;2024-02-26T07:38:04;7.90;1.00
429;DHT22;201;48.758;9.290;2024-02-26T07:40:30;8.00;1.00
429;DHT22;201;48.758;9.290;2024-02-26T07:42:56;8.10;1.00
429;DHT22;201;48.758;9.290;2024-02-26T07:45:21;8.10;1.00
429;DHT22;201;48.758;9.290;2024-02-26T07:47:47;7.90;1.00
429;DHT22;201;48.758;9.290;2024-02-26T07:50:13;7.80;1.00
429;DHT22;201;48.758;9.290;2024-02-26T07:52:39;7.80;1.00
429;DHT22;201;48.758;9.290;2024-02-26T07:55:05;7.80;1.00
429;DHT22;201;48.758;9.290;2024-02-26T07:57:32;7.70;1.00
429;DHT22;201;48.758;9.290;2024-02-26T07:59:59;7.70;1.00
429;DHT22;201;48.758;9.290;2024-02-26T08:02:24;7.60;1.00
429;DHT22;201;48.758;9.290;2024-02-26T08:04:50;7.60;1.00
429;DHT22;201;48.758;9.290;2024-02-26T08:07:15;7.70;1.00
429;DHT22;201;48.758;9.290;2024-02-26T08:09:41;7.80;1.00
429;DHT22;201;48.758;9.290;2024-02-26T08:12:07;7.80;1.00
429;DHT22;201;48.758;9.290;2024-02-26T08:14:32;7.90;1.00
429;DHT22;201;48.758;9.290;2024-02-26T08:16:58;7.80;1.00
429;DHT22;201;48.758;9.290;2024-02-26T08:19:24;7.70;1.00
429;DHT22;201;48.758;9.290;2024-02-26T08:21:49;7.60;1.00
429;DHT22;201;48.758;9.290;2024-02-26T08:24:15;7.60;1.00
429;DHT22;201;48.758;9.290;2024-02-26T08:26:40;7.50;1.00
429;DHT22;201;48.758;9.290;2024-02-26T08:29:06;7.50;1.00
429;DHT22;201;48.758;9.290;2024-02-26T08:31:31;7.50;1.00
429;DHT22;201;48.758;9.290;2024-02-26T08:33:57;7.50;1.00
429;DHT22;201;48.758;9.290;2024-02-26T08:36:23;7.50;1.00
429;DHT22;201;48.758;9.290;2024-02-26T08:38:49;7.60;1.00
429;DHT22;201;48.758;9.290;2024-02-26T08:41:14;7.60;1.00
429;DHT22;201;48.758;9.290;2024-02-26T08:43:40;7.70;1.00
429;DHT22;201;48.758;9.290;2024-02-26T08:46:10;7.70;1.00
429;DHT22;201;48.758;9.290;2024-02-26T08:48:39;7.80;1.00
429;DHT22;201;48.758;9.290;2024-02-26T08:51:06;7.80;1.00
429;DHT22;201;48.758;9.290;2024-02-26T08:53:32;7.80;1.00
429;DHT22;201;48.758;9.290;2024-02-26T08:55:57;8.00;1.00
429;DHT22;201;48.758;9.290;2024-02-26T08:58:23;8.10;1.00
429;DHT22;201;48.758;9.290;2024-02-26T09:00:48;8.10;1.00
429;DHT22;201;48.758;9.290;2024-02-26T09:03:14;8.30;1.00
429;DHT22;201;48.758;9.290;2024-02-26T09:05:39;8.60;1.00
429;DHT22;201;48.758;9.290;2024-02-26T09:08:05;8.80;1.00
429;DHT22;201;48.758;9.290;2024-02-26T09:10:31;8.90;1.00
429;DHT22;201;48.758;9.290;2024-02-26T09:12:58;8.90;1.00
429;DHT22;201;48.758;9.290;2024-02-26T09:15:23;9.00;1.00
429;DHT22;201;48.758;9.290;2024-02-26T09:17:49;9.10;1.00
429;DHT22;201;48.758;9.290;2024-02-26T09:20:15;9.20;1.00
429;DHT22;201;48.758;9.290;2024-02-26T09:22:48;9.20;1.00
429;DHT22;201;48.758;9.290;2024-02-26T09:25:13;9.20;1.00
429;DHT22;201;48.758;9.290;2024-02-26T09:27:41;9.40;1.00
429;DHT22;201;48.758;9.290;2024-02-26T09:30:07;9.60;1.00
429;DHT22;201;48.758;9.290;2024-02-26T09:32:33;9.80;1.00
429;DHT22;201;48.758;9.290;2024-02-26T09:34:58;9.80;1.00
429;DHT22;201;48.758;9.290;2024-02-26T09:37:25;9.90;1.00
429;DHT22;201;48.758;9.290;2024-02-26T09:39:50;9.90;1.00
429;DHT22;201;48.758;9.290;2024-02-26T09:42:18;10.20;1.00
429;DHT22;201;48.758;9.290;2024-02-26T09:44:45;10.40;1.00
429;DHT22;201;48.758;9.290;2024-02-26T09:47:12;10.60;1.00
429;DHT22;201;48.758;9.290;2024-02-26T09:49:42;10.90;1.00
429;DHT22;201;48.758;9.290;2024-02-26T09:52:08;10.90;1.00
429;DHT22;201;48.758;9.290;2024-02-26T09:54:36;10.90;1.00
429;DHT22;201;48.758;9.290;2024-02-26T09:57:03;10.60;1.00
429;DHT22;201;48.758;9.290;2024-02-26T09:59:36;10.20;1.00
429;DHT22;201;48.758;9.290;2024-02-26T10:02:04;9.90;1.00
429;DHT22;201;48.758;9.290;2024-02-26T10:04:31;9.70;1.00
429;DHT22;201;48.758;9.290;2024-02-26T10:06:56;9.70;1.00
429;DHT22;201;48.758;9.290;2024-02-26T10:09:25;10.00;1.00
429;DHT22;201;48.758;9.290;2024-02-26T10:11:51;10.50;1.00
429;DHT22;201;48.758;9.290;2024-02-26T10:14:16;11.00;1.00
429;DHT22;201;48.758;9.290;2024-02-26T10:16:42;12.00;1.00
429;DHT22;201;48.758;9.290;2024-02-26T10:19:08;13.10;1.00
429;DHT22;201;48.758;9.290;2024-02-26T10:21:35;13.80;1.00
429;DHT22;201;48.758;9.290;2024-02-26T10:24:01;14.30;1.00
429;DHT22;201;48.758;9.290;2024-02-26T10:26:27;14.50;1.00
429;DHT22;201;48.758;9.290;2024-02-26T10:28:52;14.50;1.00
429;DHT22;201;48.758;9.290;2024-02-26T10:31:18;14.30;1.00
429;DHT22;201;48.758;9.290;2024-02-26T10:33:44;14.20;1.00
429;DHT22;201;48.758;9.290;2024-02-26T10:36:10;14.90;1.00
429;DHT22;201;48.758;9.290;2024-02-26T10:38:37;15.30;1.00
429;DHT22;201;48.758;9.290;2024-02-26T10:41:03;15.60;1.00
429;DHT22;201;48.758;9.290;2024-02-26T10:43:29;16.10;1.00
429;DHT22;201;48.758;9.290;2024-02-26T10:45:55;16.30;1.00
429;DHT22;201;48.758;9.290;2024-02-26T10:48:21;16.30;1.00
429;DHT22;201;48.758;9.290;2024-02-26T10:50:47;16.50;1.00
429;DHT22;201;48.758;9.290;2024-02-26T10:53:16;16.50;1.00
429;DHT22;201;48.758;9.290;2024-02-26T10:55:47;16.30;1.00
429;DHT22;201;48.758;9.290;2024-02-26T10:58:13;16.20;1.00
429;DHT22;201;48.758;9.290;2024-02-26T11:00:40;16.10;1.00
429;DHT22;201;48.758;9.290;2024-02-26T11:03:06;15.80;1.00
429;DHT22;201;48.758;9.290;2024-02-26T11:05:33;15.60;1.00
429;DHT22;201;48.758;9.290;2024-02-26T11:08:00;15.50;1.00
429;DHT22;201;48.758;9.290;2024-02-26T11:10:27;15.70;1.00
429;DHT22;201;48.758;9.290;2024-02-26T11:12:56;15.70;1.00
429;DHT22;201;48.758;9.290;2024-02-26T11:15:23;15.70;1.00
429;DHT22;201;48.758;9.290;2024-02-26T11:17:48;15.70;1.00
429;DHT22;201;48.758;9.290;2024-02-26T11:20:14;15.80;1.00
429;DHT22;201;48.758;9.290;2024-02-26T11:22:41;15.60;1.00
429;DHT22;201;48.758;9.290;2024-02-26T11:25:07;15.40;1.00
429;DHT22;201;48.758;9.290;2024-02-26T11:27:40;15.50;1.00
429;DHT22;201;48.758;9.290;2024-02-26T11:30:12;15.50;1.00
429;DHT22;201;48.758;9.290;2024-02-26T11:32:38;15.50;1.00
429;DHT22;201;48.758;9.290;2024-02-26T11:35:05;15.50;1.00
429;DHT22;201;48.758;9.290;2024-02-26T11:37:31;15.40;1.00
429;DHT22;201;48.758;9.290;2024-02-26T11:39:59;15.20;1.00
429;DHT22;201;48.758;9.290;2024-02-26T11:42:25;15.20;1.00
429;DHT22;201;48.758;9.290;2024-02-26T11:44:51;15.20;1.00
429;DHT22;201;48.758;9.290;2024-02-26T11:47:21;15.30;1.00
429;DHT22;201;48.758;9.290;2024-02-26T11:49:47;15.30;1.00
429;DHT22;201;48.758;9.290;2024-02-26T11:52:13;15.30;1.00
429;DHT22;201;48.758;9.290;2024-02-26T11:54:56;15.30;1.00
429;DHT22;201;48.758;9.290;2024-02-26T11:57:26;15.30;1.00
429;DHT22;201;48.758;9.290;2024-02-26T11:59:57;15.20;1.00
429;DHT22;201;48.758;9.290;2024-02-26T12:02:43;15.00;1.00
429;DHT22;201;48.758;9.290;2024-02-26T12:05:20;14.80;1.00
429;DHT22;201;48.758;9.290;2024-02-26T12:07:53;14.90;1.00
429;DHT22;201;48.758;9.290;2024-02-26T12:10:31;14.60;1.00
429;DHT22;201;48.758;9.290;2024-02-26T12:13:16;14.80;1.00
429;DHT22;201;48.758;9.290;2024-02-26T12:15:43;15.20;1.00
429;DHT22;201;48.758;9.290;2024-02-26T12:18:15;15.50;1.00
429;DHT22;201;48.758;9.290;2024-02-26T12:20:41;15.60;1.00
429;DHT22;201;48.758;9.290;2024-02-26T12:23:06;15.90;1.00
429;DHT22;201;48.758;9.290;2024-02-26T12:25:32;16.00;1.00
429;DHT22;201;48.758;9.290;2024-02-26T12:27:59;16.10;1.00
429;DHT22;201;48.758;9.290;2024-02-26T12:30:25;16.20;1.00
429;DHT22;201;48.758;9.290;2024-02-26T12:32:52;16.40;1.00
429;DHT22;201;48.758;9.290;2024-02-26T12:35:18;16.40;1.00
429;DHT22;201;48.758;9.290;2024-02-26T12:37:44;16.60;1.00
429;DHT22;201;48.758;9.290;2024-02-26T12:40:10;16.60;1.00
429;DHT22;201;48.758;9.290;2024-02-26T12:42:36;16.40;1.00
429;DHT22;201;48.758;9.290;2024-02-26T12:45:06;16.20;1.00
429;DHT22;201;48.758;9.290;2024-02-26T12:47:40;15.90;1.00
429;DHT22;201;48.758;9.290;2024-02-26T12:50:07;15.70;1.00
429;DHT22;201;48.758;9.290;2024-02-26T12:52:34;15.70;1.00
429;DHT22;201;48.758;9.290;2024-02-26T12:55:01;15.80;1.00
429;DHT22;201;48.758;9.290;2024-02-26T12:57:29;15.70;1.00
429;DHT22;201;48.758;9.290;2024-02-26T12:59:56;15.90;1.00
429;DHT22;201;48.758;9.290;2024-02-26T13:02:22;16.10;1.00
429;DHT22;201;48.758;9.290;2024-02-26T13:04:47;16.30;1.00
429;DHT22;201;48.758;9.290;2024-02-26T13:07:13;16.40;1.00
429;DHT22;201;48.758;9.290;2024-02-26T13:09:39;16.40;1.00
429;DHT22;201;48.758;9.290;2024-02-26T13:12:06;16.30;1.00
429;DHT22;201;48.758;9.290;2024-02-26T13:14:32;16.20;1.00
429;DHT22;201;48.758;9.290;2024-02-26T13:16:59;16.00;1.00
429;DHT22;201;48.758;9.290;2024-02-26T13:19:25;15.90;1.00
429;DHT22;201;48.758;9.290;2024-02-26T13:21:51;15.80;1.00
429;DHT22;201;48.758;9.290;2024-02-26T13:24:17;15.70;1.00
429;DHT22;201;48.758;9.290;2024-02-26T13:26:45;15.70;1.00
429;DHT22;201;48.758;9.290;2024-02-26T13:29:19;15.50;1.00
429;DHT22;201;48.758;9.290;2024-02-26T13:31:45;15.40;1.00
429;DHT22;201;48.758;9.290;2024-02-26T13:34:22;15.40;1.00
429;DHT22;201;48.758;9.290;2024-02-26T13:36:48;15.30;1.00
429;DHT22;201;48.758;9.290;2024-02-26T13:39:24;15.20;1.00
429;DHT22;201;48.758;9.290;2024-02-26T13:41:54;15.10;1.00
429;DHT22;201;48.758;9.290;2024-02-26T13:44:20;15.10;1.00
429;DHT22;201;48.758;9.290;2024-02-26T13:46:46;15.10;1.00
429;DHT22;201;48.758;9.290;2024-02-26T13:49:12;15.30;1.00
429;DHT22;201;48.758;9.290;2024-02-26T13:51:39;15.40;1.00
429;DHT22;201;48.758;9.290;2024-02-26T13:54:04;15.30;1.00
429;DHT22;201;48.758;9.290;2024-02-26T13:56:31;15.30;1.00
429;DHT22;201;48.758;9.290;2024-02-26T13:58:57;15.20;1.00
429;DHT22;201;48.758;9.290;2024-02-26T14:01:23;15.20;1.00
429;DHT22;201;48.758;9.290;2024-02-26T14:03:49;15.40;1.00
429;DHT22;201;48.758;9.290;2024-02-26T14:06:15;15.70;1.00
429;DHT22;201;48.758;9.290;2024-02-26T14:08:40;15.70;1.00
429;DHT22;201;48.758;9.290;2024-02-26T14:11:06;15.80;1.00
429;DHT22;201;48.758;9.290;2024-02-26T14:13:31;16.00;1.00
429;DHT22;201;48.758;9.290;2024-02-26T14:15:57;16.10;1.00
429;DHT22;201;48.758;9.290;2024-02-26T14:18:22;16.10;1.00
429;DHT22;201;48.758;9.290;2024-02-26T14:20:48;16.20;1.00
429;DHT22;201;48.758;9.290;2024-02-26T14:23:14;15.90;1.00
429;DHT22;201;48.758;9.290;2024-02-26T14:25:39;15.80;1.00
429;DHT22;201;48.758;9.290;2024-02-26T14:28:05;15.70;1.00
429;DHT22;201;48.758;9.290;2024-02-26T14:30:31;15.60;1.00
429;DHT22;201;48.758;9.290;2024-02-26T14:32:56;15.30;1.00
429;DHT22;201;48.758;9.290;2024-02-26T14:35:22;15.00;1.00
429;DHT22;201;48.758;9.290;2024-02-26T14:37:47;14.90;1.00
429;DHT22;201;48.758;9.290;2024-02-26T14:40:14;14.90;1.00
429;DHT22;201;48.758;9.290;2024-02-26T14:42:40;15.10;1.00
429;DHT22;201;48.758;9.290;2024-02-26T14:45:06;15.10;1.00
429;DHT22;201;48.758;9.290;2024-02-26T14:47:37;14.90;1.00
429;DHT22;201;48.758;9.290;2024-02-26T14:50:03;14.60;1.00
429;DHT22;201;48.758;9.290;2024-02-26T14:52:29;14.50;1.00
429;DHT22;201;48.758;9.290;2024-02-26T14:54:54;14.40;1.00
429;DHT22;201;48.758;9.290;2024-02-26T14:57:20;14.30;1.00
429;DHT22;201;48.758;9.290;2024-02-26T14:59:45;14.10;1.00
429;DHT22;201;48.758;9.290;2024-02-26T15:02:11;14.10;1.00
429;DHT22;201;48.758;9.290;2024-02-26T15:04:37;14.20;1.00
429;DHT22;201;48.758;9.290;2024-02-26T15:07:03;14.10;1.00
429;DHT22;201;48.758;9.290;2024-02-26T15:09:29;14.20;1.00
429;DHT22;201;48.758;9.290;2024-02-26T15:11:54;14.10;1.00
429;DHT22;201;48.758;9.290;2024-02-26T15:14:20;14.00;1.00
429;DHT22;201;48.758;9.290;2024-02-26T15:16:45;14.00;1.00
429;DHT22;201;48.758;9.290;2024-02-26T15:19:11;13.80;1.00
429;DHT22;201;48.758;9.290;2024-02-26T15:21:44;13.70;1.00
429;DHT22;201;48.758;9.290;2024-02-26T15:24:09;13.70;1.00
429;DHT22;201;48.758;9.290;2024-02-26T15:26:37;13.70;1.00
429;DHT22;201;48.758;9.290;2024-02-26T15:29:02;13.60;1.00
429;DHT22;201;48.758;9.290;2024-02-26T15:31:28;13.50;1.00
429;DHT22;201;48.758;9.290;2024-02-26T15:33:53;13.40;1.00
429;DHT22;201;48.758;9.290;2024-02-26T15:36:19;13.30;1.00
429;DHT22;201;48.758;9.290;2024-02-26T15:38:44;13.20;1.00
429;DHT22;201;48.758;9.290;2024-02-26T15:41:13;13.20;1.00
429;DHT22;201;48.758;9.290;2024-02-26T15:43:39;13.00;1.00
429;DHT22;201;48.758;9.290;2024-02-26T15:46:05;13.00;1.00
429;DHT22;201;48.758;9.290;2024-02-26T15:48:33;12.90;1.00
429;DHT22;201;48.758;9.290;2024-02-26T15:50:59;12.90;1.00
429;DHT22;201;48.758;9.290;2024-02-26T15:53:24;12.80;1.00
429;DHT22;201;48.758;9.290;2024-02-26T15:55:50;12.70;1.00
429;DHT22;201;48.758;9.290;2024-02-26T15:58:16;12.60;1.00
429;DHT22;201;48.758;9.290;2024-02-26T16:00:41;12.50;1.00
429;DHT22;201;48.758;9.290;2024-02-26T16:03:08;12.50;1.00
429;DHT22;201;48.758;9.290;2024-02-26T16:05:34;12.40;1.00
429;DHT22;201;48.758;9.290;2024-02-26T16:08:04;12.40;1.00
429;DHT22;201;48.758;9.290;2024-02-26T16:10:30;12.30;1.00
429;DHT22;201;48.758;9.290;2024-02-26T16:12:59;12.30;1.00
429;DHT22;201;48.758;9.290;2024-02-26T16:15:26;12.30;1.00
429;DHT22;201;48.758;9.290;2024-02-26T16:17:52;12.20;1.00
429;DHT22;201;48.758;9.290;2024-02-26T16:20:21;12.20;1.00
429;DHT22;201;48.758;9.290;2024-02-26T16:22:49;12.10;1.00
429;DHT22;201;48.758;9.290;2024-02-26T16:25:16;12.10;1.00
429;DHT22;201;48.758;9.290;2024-02-26T16:27:41;12.00;1.00
429;DHT22;201;48.758;9.290;2024-02-26T16:30:08;12.00;1.00
429;DHT22;201;48.758;9.290;2024-02-26T16:32:34;11.90;1.00
429;DHT22;201;48.758;9.290;2024-02-26T16:35:02;11.80;1.00
429;DHT22;201;48.758;9.290;2024-02-26T16:37:30;11.80;1.00
429;DHT22;201;48.758;9.290;2024-02-26T16:39:58;11.70;1.00
429;DHT22;201;48.758;9.290;2024-02-26T16:42:25;11.60;1.00
429;DHT22;201;48.758;9.290;2024-02-26T16:44:50;11.50;1.00
429;DHT22;201;48.758;9.290;2024-02-26T16:47:16;11.50;1.00
429;DHT22;201;48.758;9.290;2024-02-26T16:49:42;11.50;1.00
429;DHT22;201;48.758;9.290;2024-02-26T16:52:07;11.40;1.00
429;DHT22;201;48.758;9.290;2024-02-26T16:54:33;11.40;1.00